createdAt,value
2018-04-30T00:00:50.046Z,69.90
2018-04-30T00:03:17.565Z,69.80
2018-04-30T00:05:45.838Z,70.50
2018-04-30T00:08:14.133Z,70.20
2018-04-30T00:10:41.643Z,70.20
2018-04-30T00:13:09.174Z,70.50
2018-04-30T00:15:38.181Z,70.70
2018-04-30T00:18:05.705Z,70.70
2018-04-30T00:20:33.434Z,70.60
2018-04-30T00:23:00.957Z,70.90
2018-04-30T00:25:28.471Z,70.80
2018-04-30T00:27:56.001Z,70.60
2018-04-30T00:30:23.505Z,70.60
2018-04-30T00:32:51.022Z,70.60
2018-04-30T00:35:18.525Z,70.60
2018-04-30T00:37:46.059Z,70.60
2018-04-30T00:40:13.578Z,70.60
2018-04-30T00:42:41.111Z,70.60
2018-04-30T00:45:08.619Z,70.10
2018-04-30T00:47:36.155Z,69.60
2018-04-30T00:50:03.649Z,68.80
2018-04-30T00:52:31.166Z,68.10
2018-04-30T00:55:00.234Z,67.90
2018-04-30T00:57:27.762Z,67.90
2018-04-30T00:59:55.264Z,67.70
2018-04-30T01:02:22.797Z,67.10
2018-04-30T01:04:51.085Z,67.10
2018-04-30T01:07:19.390Z,67.10
2018-04-30T01:09:46.890Z,67.10
2018-04-30T01:12:19.206Z,67.00
2018-04-30T01:14:46.729Z,67.10
2018-04-30T01:17:14.256Z,67.10
2018-04-30T01:19:41.752Z,67.10
2018-04-30T01:22:10.120Z,67.30
2018-04-30T01:24:37.562Z,67.20
2018-04-30T01:27:05.071Z,67.50
2018-04-30T01:29:33.368Z,67.80
2018-04-30T01:32:01.636Z,67.70
2018-04-30T01:34:29.161Z,67.70
2018-04-30T01:36:56.722Z,67.60
2018-04-30T01:39:24.253Z,67.30
2018-04-30T01:41:52.533Z,67.70
2018-04-30T01:44:20.061Z,67.70
2018-04-30T01:46:47.565Z,67.60
2018-04-30T01:49:15.093Z,67.40
2018-04-30T01:51:42.592Z,67.40
2018-04-30T01:54:10.109Z,67.20
2018-04-30T01:56:38.386Z,67.80
2018-04-30T01:59:05.921Z,67.30
2018-04-30T02:01:33.416Z,67.60
2018-04-30T02:04:00.945Z,67.70
2018-04-30T02:06:28.450Z,67.70
2018-04-30T02:08:55.995Z,67.80
2018-04-30T02:11:23.509Z,67.90
2018-04-30T02:13:52.540Z,68.00
2018-04-30T02:16:20.819Z,67.70
2018-04-30T02:18:49.108Z,68.10
2018-04-30T02:21:16.627Z,68.30
2018-04-30T02:23:44.169Z,68.90
2018-04-30T02:26:11.676Z,69.90
2018-04-30T02:28:39.200Z,69.10
2018-04-30T02:31:07.473Z,70.70
2018-04-30T02:33:35.086Z,70.70
2018-04-30T02:36:02.548Z,71.00
2018-04-30T02:38:30.074Z,69.70
2018-04-30T02:40:57.580Z,69.40
2018-04-30T02:43:25.878Z,68.40
2018-04-30T02:45:54.141Z,68.10
2018-04-30T02:48:22.449Z,68.00
2018-04-30T02:50:50.727Z,67.70
2018-04-30T02:53:19.026Z,67.50
2018-04-30T02:55:47.295Z,68.90
2018-04-30T02:58:14.835Z,68.80
2018-04-30T03:00:43.115Z,70.10
2018-04-30T03:03:10.645Z,69.70
2018-04-30T03:05:38.953Z,70.10
2018-04-30T03:08:06.452Z,70.00
2018-04-30T03:10:33.974Z,70.40
2018-04-30T03:13:02.244Z,70.20
2018-04-30T03:15:29.771Z,70.10
2018-04-30T03:17:57.289Z,69.70
2018-04-30T03:20:24.828Z,69.60
2018-04-30T03:22:52.336Z,69.30
2018-04-30T03:25:19.875Z,69.30
2018-04-30T03:27:47.380Z,69.20
2018-04-30T03:30:15.670Z,69.00
2018-04-30T03:32:43.176Z,69.10
2018-04-30T03:35:10.693Z,69.10
2018-04-30T03:37:38.196Z,69.10
2018-04-30T03:40:06.503Z,68.90
2018-04-30T03:42:34.020Z,68.90
2018-04-30T03:45:01.550Z,68.90
2018-04-30T03:47:29.074Z,70.40
2018-04-30T03:49:56.603Z,71.10
2018-04-30T03:52:24.121Z,72.20
2018-04-30T03:54:51.642Z,72.80
2018-04-30T03:57:19.142Z,74.30
2018-04-30T03:59:46.676Z,73.90
2018-04-30T04:02:26.217Z,74.60
2018-04-30T04:05:06.523Z,76.10
2018-04-30T04:07:34.027Z,77.40
2018-04-30T04:10:01.558Z,77.60
2018-04-30T04:12:29.057Z,79.20
2018-04-30T04:14:56.619Z,79.50
2018-04-30T04:17:24.117Z,79.20
2018-04-30T04:19:51.635Z,80.90
2018-04-30T04:22:20.094Z,81.40
2018-04-30T04:24:48.421Z,83.30
2018-04-30T04:27:15.935Z,83.20
2018-04-30T04:29:43.490Z,83.20
2018-04-30T04:32:11.011Z,85.00
2018-04-30T04:34:39.300Z,86.90
2018-04-30T04:37:07.568Z,88.40
2018-04-30T04:39:35.088Z,88.40
2018-04-30T04:42:02.672Z,88.50
2018-04-30T04:44:30.237Z,89.10
2018-04-30T04:46:57.836Z,87.70
2018-04-30T04:49:25.355Z,88.40
2018-04-30T04:51:53.765Z,86.20
2018-04-30T04:54:21.268Z,86.20
2018-04-30T04:56:48.802Z,86.80
2018-04-30T04:59:16.404Z,83.20
2018-04-30T05:01:44.729Z,82.20
2018-04-30T05:04:12.232Z,81.70
2018-04-30T05:06:40.529Z,81.40
2018-04-30T05:09:08.048Z,81.40
2018-04-30T05:11:35.597Z,79.50
2018-04-30T05:14:03.153Z,79.30
2018-04-30T05:16:30.721Z,79.80
2018-04-30T05:18:58.227Z,79.30
2018-04-30T05:21:25.745Z,81.10
2018-04-30T05:23:54.022Z,79.20
2018-04-30T05:26:22.317Z,78.10
2018-04-30T05:28:50.587Z,77.70
2018-04-30T05:31:18.109Z,77.60
2018-04-30T05:33:45.689Z,77.30
2018-04-30T05:36:13.634Z,76.40
2018-04-30T05:38:42.146Z,75.80
2018-04-30T05:41:09.665Z,75.80
2018-04-30T05:43:37.167Z,75.70
2018-04-30T05:46:05.466Z,75.00
2018-04-30T05:48:33.738Z,74.10
2018-04-30T05:51:02.031Z,73.70
2018-04-30T05:53:31.033Z,71.90
2018-04-30T05:55:58.553Z,71.90
2018-04-30T05:58:26.066Z,71.90
2018-04-30T06:00:53.621Z,71.10
2018-04-30T06:03:21.116Z,70.90
2018-04-30T06:05:48.636Z,71.30
2018-04-30T06:08:16.151Z,70.90
2018-04-30T06:10:43.680Z,71.10
2018-04-30T06:13:11.212Z,69.80
2018-04-30T06:15:39.496Z,69.80
2018-04-30T06:18:06.988Z,69.70
2018-04-30T06:20:34.509Z,68.70
2018-04-30T06:23:02.013Z,69.60
2018-04-30T06:25:30.302Z,68.30
2018-04-30T06:27:58.597Z,68.50
2018-04-30T06:30:26.868Z,68.00
2018-04-30T06:32:54.409Z,67.90
2018-04-30T06:35:21.916Z,68.60
2018-04-30T06:37:49.459Z,68.80
2018-04-30T06:40:16.994Z,68.60
2018-04-30T06:42:44.517Z,67.10
2018-04-30T06:45:12.031Z,66.20
2018-04-30T06:47:39.567Z,65.90
2018-04-30T06:50:07.068Z,64.80
2018-04-30T06:52:34.589Z,65.00
2018-04-30T06:55:02.104Z,63.70
2018-04-30T06:57:30.389Z,61.80
2018-04-30T06:59:58.681Z,62.00
2018-04-30T07:02:26.998Z,62.20
2018-04-30T07:04:54.496Z,62.00
2018-04-30T07:07:22.012Z,61.00
2018-04-30T07:09:49.541Z,61.10
2018-04-30T07:12:17.072Z,60.40
2018-04-30T07:14:44.564Z,59.10
2018-04-30T07:17:12.081Z,59.70
2018-04-30T07:19:39.577Z,59.60
2018-04-30T07:22:07.098Z,59.20
2018-04-30T07:24:34.612Z,59.10
2018-04-30T07:27:02.905Z,57.40
2018-04-30T07:29:31.183Z,57.90
2018-04-30T07:31:59.493Z,58.10
2018-04-30T07:34:27.011Z,58.00
2018-04-30T07:36:54.538Z,58.00
2018-04-30T07:39:22.039Z,58.40
2018-04-30T07:41:49.561Z,57.50
2018-04-30T07:44:17.845Z,56.90
2018-04-30T07:46:46.140Z,56.90
2018-04-30T07:49:14.463Z,57.10
2018-04-30T07:51:42.721Z,56.60
2018-04-30T07:54:11.012Z,56.60
2018-04-30T07:56:39.300Z,55.00
2018-04-30T07:59:07.565Z,55.40
2018-04-30T08:01:35.088Z,55.30
2018-04-30T08:04:02.607Z,54.90
2018-04-30T08:06:30.109Z,53.70
2018-04-30T08:08:58.408Z,53.20
2018-04-30T08:11:25.922Z,53.20
2018-04-30T08:13:53.455Z,52.90
2018-04-30T08:16:20.949Z,52.60
2018-04-30T08:18:48.487Z,52.20
2018-04-30T08:21:16.003Z,51.00
2018-04-30T08:23:43.528Z,50.30
2018-04-30T08:26:11.807Z,50.10
2018-04-30T08:28:40.093Z,50.30
2018-04-30T08:31:08.365Z,49.70
2018-04-30T08:33:35.985Z,49.60
2018-04-30T08:36:03.480Z,50.40
2018-04-30T08:38:31.008Z,49.20
2018-04-30T08:40:59.271Z,48.00
2018-04-30T08:43:26.805Z,48.00
2018-04-30T08:45:54.308Z,48.10
2018-04-30T08:48:21.834Z,47.80
2018-04-30T08:50:49.351Z,47.90
2018-04-30T08:53:16.896Z,48.20
2018-04-30T08:55:44.402Z,47.50
2018-04-30T08:58:11.925Z,47.50
2018-04-30T09:00:39.491Z,46.90
2018-04-30T09:03:06.957Z,46.60
2018-04-30T09:05:34.458Z,46.10
2018-04-30T09:08:01.993Z,45.70
2018-04-30T09:10:29.490Z,45.00
2018-04-30T09:12:57.013Z,45.50
2018-04-30T09:15:25.276Z,44.30
2018-04-30T09:17:52.801Z,44.30
2018-04-30T09:20:20.319Z,44.90
2018-04-30T09:22:47.869Z,44.00
2018-04-30T09:25:15.383Z,44.20
2018-04-30T09:27:43.679Z,44.70
2018-04-30T09:30:11.957Z,43.90
2018-04-30T09:32:39.480Z,43.70
2018-04-30T09:35:07.024Z,43.40
2018-04-30T09:37:35.322Z,43.70
2018-04-30T09:40:02.842Z,43.70
2018-04-30T09:42:30.346Z,44.00
2018-04-30T09:44:58.634Z,43.20
2018-04-30T09:47:26.902Z,43.30
2018-04-30T09:49:54.427Z,43.30
2018-04-30T09:52:21.938Z,42.80
2018-04-30T09:54:49.462Z,42.90
2018-04-30T09:57:16.969Z,43.30
2018-04-30T09:59:44.488Z,43.10
2018-04-30T10:02:12.757Z,43.40
2018-04-30T10:04:40.367Z,43.30
2018-04-30T10:07:07.870Z,43.10
2018-04-30T10:09:35.412Z,41.30
2018-04-30T10:12:02.934Z,41.30
2018-04-30T10:14:30.462Z,41.80
2018-04-30T10:16:57.998Z,43.10
2018-04-30T10:19:26.596Z,42.60
2018-04-30T10:21:55.149Z,42.50
2018-04-30T10:24:23.015Z,42.40
2018-04-30T10:26:50.774Z,41.10
2018-04-30T10:29:18.746Z,41.00
2018-04-30T10:31:47.591Z,41.20
2018-04-30T10:34:15.565Z,41.50
2018-04-30T10:36:44.310Z,41.30
2018-04-30T10:39:13.523Z,41.20
2018-04-30T10:41:41.267Z,40.50
2018-04-30T10:44:08.814Z,40.20
2018-04-30T10:46:36.319Z,39.60
2018-04-30T10:49:03.849Z,40.00
2018-04-30T10:51:31.377Z,39.80
2018-04-30T10:53:58.904Z,39.50
2018-04-30T10:56:26.416Z,38.60
2018-04-30T10:58:53.954Z,38.20
2018-04-30T11:01:21.461Z,37.50
2018-04-30T11:03:48.998Z,36.20
2018-04-30T11:06:16.511Z,35.20
2018-04-30T11:08:44.796Z,34.30
2018-04-30T11:11:13.066Z,33.40
2018-04-30T11:13:40.597Z,33.40
2018-04-30T11:16:08.100Z,33.20
2018-04-30T11:18:35.606Z,33.00
2018-04-30T11:21:03.896Z,33.20
2018-04-30T11:23:32.179Z,33.00
2018-04-30T11:26:00.484Z,33.20
2018-04-30T11:28:27.992Z,33.20
2018-04-30T11:30:55.520Z,33.30
2018-04-30T11:33:23.798Z,32.60
2018-04-30T11:35:52.123Z,33.30
2018-04-30T11:38:19.636Z,33.20
2018-04-30T11:40:47.174Z,33.20
2018-04-30T11:43:14.681Z,32.90
2018-04-30T11:45:42.216Z,33.20
2018-04-30T11:48:09.723Z,33.10
2018-04-30T11:50:37.292Z,33.50
2018-04-30T11:53:04.801Z,33.30
2018-04-30T11:55:32.380Z,33.50
2018-04-30T11:57:59.889Z,34.30
2018-04-30T12:00:27.441Z,33.40
2018-04-30T12:02:55.026Z,33.00
2018-04-30T12:05:22.554Z,32.20
2018-04-30T12:07:50.069Z,32.60
2018-04-30T12:10:17.616Z,33.00
2018-04-30T12:12:45.375Z,33.40
2018-04-30T12:15:13.756Z,33.30
2018-04-30T12:17:42.385Z,33.60
2018-04-30T12:20:10.282Z,33.40
2018-04-30T12:22:37.884Z,30.90
2018-04-30T12:25:05.430Z,31.00
2018-04-30T12:27:32.952Z,31.90
2018-04-30T12:30:01.252Z,32.80
2018-04-30T12:32:28.786Z,32.90
2018-04-30T12:34:56.344Z,33.30
2018-04-30T12:37:23.867Z,32.20
2018-04-30T12:39:51.407Z,32.40
2018-04-30T12:42:18.967Z,32.10
2018-04-30T12:44:46.505Z,31.50
2018-04-30T12:47:14.035Z,32.60
2018-04-30T12:49:42.412Z,32.30
2018-04-30T12:52:09.908Z,32.30
2018-04-30T12:54:38.190Z,32.40
2018-04-30T12:57:05.716Z,32.40
2018-04-30T12:59:33.270Z,32.40
2018-04-30T13:02:00.820Z,32.50
2018-04-30T13:04:28.338Z,32.90
2018-04-30T13:06:55.880Z,33.60
2018-04-30T13:09:23.422Z,33.50
2018-04-30T13:11:51.729Z,33.70
2018-04-30T13:14:19.263Z,33.70
2018-04-30T13:16:47.663Z,31.70
2018-04-30T13:19:15.994Z,32.60
2018-04-30T13:21:43.518Z,32.60
2018-04-30T13:24:11.014Z,32.30
2018-04-30T13:26:39.301Z,32.00
2018-04-30T13:29:07.568Z,31.60
2018-04-30T13:31:35.100Z,31.50
2018-04-30T13:34:02.610Z,31.60
2018-04-30T13:36:30.143Z,32.10
2018-04-30T13:38:57.664Z,32.30
2018-04-30T13:41:25.188Z,32.20
2018-04-30T13:43:52.697Z,33.20
2018-04-30T13:46:20.223Z,32.40
2018-04-30T13:48:47.728Z,31.10
2018-04-30T13:51:15.270Z,31.40
2018-04-30T13:53:42.768Z,31.20
2018-04-30T13:56:10.303Z,31.10
2018-04-30T13:58:37.951Z,31.50
2018-04-30T14:01:05.516Z,32.20
2018-04-30T14:03:33.050Z,31.60
2018-04-30T14:06:00.607Z,31.90
2018-04-30T14:08:28.137Z,33.00
2018-04-30T14:10:56.437Z,31.60
2018-04-30T14:13:24.715Z,32.70
2018-04-30T14:15:53.074Z,32.70
2018-04-30T14:18:20.531Z,32.40
2018-04-30T14:20:48.055Z,32.10
2018-04-30T14:23:16.335Z,31.00
2018-04-30T14:25:43.849Z,30.90
2018-04-30T14:28:11.384Z,31.20
2018-04-30T14:30:39.656Z,31.10
2018-04-30T14:33:07.186Z,31.00
2018-04-30T14:35:34.707Z,31.20
2018-04-30T14:38:02.238Z,29.90
2018-04-30T14:40:29.751Z,30.40
2018-04-30T14:42:58.049Z,31.30
2018-04-30T14:45:25.579Z,31.30
2018-04-30T14:47:53.126Z,31.20
2018-04-30T14:50:20.641Z,32.10
2018-04-30T14:52:48.179Z,33.20
2018-04-30T14:55:15.677Z,33.40
2018-04-30T14:57:43.205Z,33.50
2018-04-30T15:00:10.723Z,33.40
2018-04-30T15:02:38.255Z,33.80
2018-04-30T15:05:05.765Z,32.70
2018-04-30T15:07:33.490Z,33.80
2018-04-30T15:10:01.010Z,32.40
2018-04-30T15:12:28.553Z,33.10
2018-04-30T15:14:56.066Z,33.10
2018-04-30T15:17:23.598Z,32.40
2018-04-30T15:19:51.101Z,33.70
2018-04-30T15:22:18.641Z,32.60
2018-04-30T15:24:46.170Z,32.50
2018-04-30T15:27:14.460Z,33.60
2018-04-30T15:29:42.728Z,33.40
2018-04-30T15:32:10.274Z,33.40
2018-04-30T15:34:37.780Z,33.40
2018-04-30T15:37:05.297Z,33.70
2018-04-30T15:39:32.805Z,33.90
2018-04-30T15:42:00.386Z,34.00
2018-04-30T15:44:27.860Z,34.70
2018-04-30T15:46:55.390Z,34.60
2018-04-30T15:49:22.913Z,34.50
2018-04-30T15:51:51.218Z,34.10
2018-04-30T15:54:18.714Z,34.10
2018-04-30T15:56:46.234Z,33.70
2018-04-30T15:59:13.761Z,33.70
2018-04-30T16:01:41.268Z,34.20
2018-04-30T16:04:08.794Z,34.70
2018-04-30T16:06:36.292Z,33.70
2018-04-30T16:09:03.833Z,33.60
2018-04-30T16:11:31.342Z,33.30
2018-04-30T16:13:58.885Z,33.50
2018-04-30T16:16:26.407Z,33.40
2018-04-30T16:18:53.933Z,32.60
2018-04-30T16:21:21.440Z,32.90
2018-04-30T16:23:48.984Z,32.60
2018-04-30T16:26:16.503Z,33.10
2018-04-30T16:28:45.565Z,33.60
2018-04-30T16:31:13.065Z,32.90
2018-04-30T16:33:40.590Z,33.40
2018-04-30T16:36:08.122Z,33.50
2018-04-30T16:38:36.418Z,33.90
2018-04-30T16:41:03.934Z,33.80
2018-04-30T16:43:31.461Z,33.50
2018-04-30T16:45:59.729Z,34.20
2018-04-30T16:48:27.253Z,34.20
2018-04-30T16:50:54.760Z,35.00
2018-04-30T16:53:22.289Z,34.60
2018-04-30T16:55:49.785Z,34.50
2018-04-30T16:58:17.309Z,34.60
2018-04-30T17:00:45.586Z,35.20
2018-04-30T17:03:13.889Z,35.40
2018-04-30T17:05:41.396Z,35.40
2018-04-30T17:08:09.013Z,36.00
2018-04-30T17:10:36.557Z,39.10
2018-04-30T17:13:04.078Z,40.60
2018-04-30T17:15:32.350Z,42.50
2018-04-30T17:18:00.642Z,42.90
2018-04-30T17:20:28.913Z,43.30
2018-04-30T17:22:56.441Z,43.30
2018-04-30T17:25:23.945Z,43.80
2018-04-30T17:27:51.451Z,43.80
2018-04-30T17:30:19.743Z,44.10
2018-04-30T17:32:48.030Z,44.60
2018-04-30T17:35:16.325Z,44.80
2018-04-30T17:37:44.603Z,45.30
2018-04-30T17:40:12.907Z,45.80
2018-04-30T17:42:40.421Z,45.70
2018-04-30T17:45:07.957Z,45.80
2018-04-30T17:47:35.456Z,46.50
2018-04-30T17:50:02.988Z,47.10
2018-04-30T17:52:30.500Z,47.60
2018-04-30T17:54:58.045Z,47.60
2018-04-30T17:57:25.547Z,47.80
2018-04-30T17:59:53.159Z,47.50
2018-04-30T18:02:20.604Z,47.40
2018-04-30T18:04:48.121Z,47.40
2018-04-30T18:07:15.628Z,47.80
2018-04-30T18:09:43.154Z,48.10
2018-04-30T18:12:11.420Z,47.60
2018-04-30T18:14:38.951Z,47.60
2018-04-30T18:17:06.465Z,47.90
2018-04-30T18:19:33.988Z,48.00
2018-04-30T18:22:01.493Z,48.20
2018-04-30T18:24:29.031Z,48.30
2018-04-30T18:26:56.695Z,48.40
2018-04-30T18:29:24.079Z,48.60
2018-04-30T18:31:51.945Z,48.50
2018-04-30T18:34:19.475Z,48.70
2018-04-30T18:36:46.989Z,49.10
2018-04-30T18:39:14.508Z,49.40
2018-04-30T18:41:42.012Z,49.70
2018-04-30T18:44:10.323Z,50.00
2018-04-30T18:46:37.837Z,50.00
2018-04-30T18:49:05.372Z,50.10
2018-04-30T18:51:32.938Z,50.60
2018-04-30T18:54:00.475Z,51.00
2018-04-30T18:56:27.972Z,51.20
2018-04-30T18:58:55.490Z,50.80
2018-04-30T19:01:23.014Z,51.60
2018-04-30T19:03:50.521Z,52.00
2018-04-30T19:06:18.043Z,52.30
2018-04-30T19:08:46.310Z,52.60
2018-04-30T19:11:13.835Z,52.50
2018-04-30T19:13:41.332Z,52.90
2018-04-30T19:16:09.637Z,53.40
2018-04-30T19:18:37.155Z,54.00
2018-04-30T19:21:04.676Z,53.40
2018-04-30T19:23:32.197Z,53.70
2018-04-30T19:25:59.728Z,53.50
2018-04-30T19:28:27.230Z,53.60
2018-04-30T19:30:54.969Z,53.20
2018-04-30T19:33:22.477Z,53.00
2018-04-30T19:35:50.021Z,53.00
2018-04-30T19:38:17.524Z,53.70
2018-04-30T19:40:45.053Z,52.80
2018-04-30T19:43:12.559Z,53.00
2018-04-30T19:45:40.086Z,53.00
2018-04-30T19:48:07.606Z,53.10
2018-04-30T19:50:35.134Z,53.50
2018-04-30T19:53:02.706Z,53.00
2018-04-30T19:55:30.195Z,53.40
2018-04-30T19:57:57.696Z,53.30
2018-04-30T20:00:25.588Z,53.60
2018-04-30T20:02:53.086Z,53.30
2018-04-30T20:05:20.620Z,53.40
2018-04-30T20:07:48.120Z,53.50
2018-04-30T20:10:15.657Z,53.40
2018-04-30T20:12:43.168Z,53.10
2018-04-30T20:15:10.701Z,52.70
2018-04-30T20:17:38.197Z,52.90
2018-04-30T20:20:05.727Z,52.90
2018-04-30T20:22:34.011Z,53.30
2018-04-30T20:25:02.286Z,52.70
2018-04-30T20:27:29.817Z,52.70
2018-04-30T20:29:57.331Z,52.20
2018-04-30T20:32:25.033Z,52.00
2018-04-30T20:34:53.332Z,51.60
2018-04-30T20:37:20.862Z,51.60
2018-04-30T20:39:48.378Z,51.70
2018-04-30T20:42:15.956Z,51.70
2018-04-30T20:44:43.478Z,51.60
2018-04-30T20:47:11.040Z,50.90
2018-04-30T20:49:38.562Z,50.90
2018-04-30T20:52:06.084Z,51.20
2018-04-30T20:54:33.592Z,50.90
2018-04-30T20:57:01.881Z,51.00
2018-04-30T20:59:30.154Z,51.00
2018-04-30T21:01:57.681Z,50.90
2018-04-30T21:04:25.180Z,51.00
2018-04-30T21:06:52.710Z,51.00
2018-04-30T21:09:20.230Z,51.20
2018-04-30T21:11:47.758Z,51.20
2018-04-30T21:14:15.317Z,51.50
2018-04-30T21:16:42.872Z,51.60
2018-04-30T21:19:10.412Z,51.70
2018-04-30T21:21:37.952Z,51.70
2018-04-30T21:24:05.457Z,51.60
2018-04-30T21:26:33.041Z,51.50
2018-04-30T21:29:00.514Z,51.40
2018-04-30T21:31:28.819Z,51.10
2018-04-30T21:33:57.097Z,50.90
2018-04-30T21:36:25.393Z,50.70
2018-04-30T21:38:53.669Z,50.70
2018-04-30T21:41:21.970Z,51.20
2018-04-30T21:43:50.265Z,50.40
2018-04-30T21:46:18.556Z,50.50
2018-04-30T21:48:46.835Z,50.60
2018-04-30T21:51:15.298Z,50.50
2018-04-30T21:53:42.825Z,50.40
2018-04-30T21:56:10.357Z,50.40
2018-04-30T21:58:37.856Z,50.40
2018-04-30T22:01:05.386Z,50.40
2018-04-30T22:03:32.906Z,50.60
2018-04-30T22:06:00.407Z,50.70
2018-04-30T22:08:27.929Z,50.80
2018-04-30T22:10:56.196Z,50.70
2018-04-30T22:13:23.736Z,50.70
2018-04-30T22:15:51.255Z,50.60
2018-04-30T22:18:19.553Z,50.50
2018-04-30T22:20:47.867Z,51.00
2018-04-30T22:23:15.402Z,51.00
2018-04-30T22:25:42.904Z,51.60
2018-04-30T22:28:10.436Z,51.70
2018-04-30T22:30:38.047Z,52.00
2018-04-30T22:33:05.565Z,52.30
2018-04-30T22:35:33.826Z,52.70
2018-04-30T22:38:01.353Z,52.60
2018-04-30T22:40:29.620Z,52.60
2018-04-30T22:42:57.159Z,52.50
2018-04-30T22:45:24.657Z,52.50
2018-04-30T22:47:52.185Z,52.70
2018-04-30T22:50:19.705Z,52.40
2018-04-30T22:52:47.252Z,52.70
2018-04-30T22:55:14.760Z,52.70
2018-04-30T22:57:42.432Z,52.70
2018-04-30T23:00:09.954Z,52.70
2018-04-30T23:02:37.499Z,52.60
2018-04-30T23:05:05.763Z,53.00
2018-04-30T23:07:33.343Z,53.00
2018-04-30T23:10:00.854Z,53.20
2018-04-30T23:12:28.374Z,53.40
2018-04-30T23:14:55.914Z,53.50
2018-04-30T23:17:23.444Z,53.90
2018-04-30T23:19:51.735Z,53.80
2018-04-30T23:22:20.034Z,54.00
2018-04-30T23:24:47.532Z,54.00
2018-04-30T23:27:15.053Z,54.30
2018-04-30T23:29:43.322Z,54.00
2018-04-30T23:32:10.882Z,54.00
2018-04-30T23:34:38.390Z,54.10
2018-04-30T23:37:06.676Z,54.40
2018-04-30T23:39:34.970Z,54.40
2018-04-30T23:42:03.232Z,54.50
2018-04-30T23:44:30.752Z,54.50
2018-04-30T23:46:58.253Z,54.60
2018-04-30T23:49:25.790Z,54.80
2018-04-30T23:51:53.293Z,55.10
2018-04-30T23:54:20.812Z,55.00
2018-04-30T23:56:49.080Z,55.70
2018-04-30T23:59:16.988Z,55.70
